Time;durP1;ratioP1;P1;durP2;ratioP2;P2;SDS_P1;SDS_P2;PMS_P1;PMS_P2;Temp;Humidity;BMP_temperature;BMP_pressure;BME280_temperature;BME280_humidity;BME280_pressure;Samples;Min_cycle;Max_cycle;Signal;HPM_P1;HPM_P2
2023/09/01 00:02:08;;;;;;;5.82;2.10;;;18.90;79.30;;;;;;4200347;28;20063;-40
2023/09/01 00:05:03;;;;;;;2.25;1.50;;;18.90;79.20;;;;;;4188972;28;20052;-42
2023/09/01 00:07:44;;;;;;;2.10;1.52;;;18.90;79.30;;;;;;4172796;28;20060;-41
2023/09/01 00:10:27;;;;;;;4.53;1.90;;;18.90;79.20;;;;;;4171505;28;20776;-41
2023/09/01 00:13:07;;;;;;;2.90;1.52;;;18.90;79.10;;;;;;4173277;28;20182;-41
2023/09/01 00:15:49;;;;;;;3.00;1.98;;;18.90;79.10;;;;;;4162425;28;20051;-41
2023/09/01 00:18:31;;;;;;;2.97;1.48;;;18.90;79.00;;;;;;4189261;28;20064;-41
2023/09/01 00:21:11;;;;;;;;;;;18.90;79.00;;;;;;4190057;28;20117;-41
2023/09/01 00:23:52;;;;;;;3.47;1.70;;;18.90;79.20;;;;;;4190313;28;19926;-41
2023/09/01 00:26:34;;;;;;;1.65;1.50;;;18.90;80.00;;;;;;4172122;28;20142;-42
2023/09/01 00:29:15;;;;;;;3.65;1.70;;;18.90;79.40;;;;;;4173371;28;20059;-44
2023/09/01 00:31:56;;;;;;;2.58;1.70;;;18.80;79.20;;;;;;4173333;28;20122;-41
2023/09/01 00:34:37;;;;;;;3.58;1.70;;;18.80;79.20;;;;;;4180980;28;20479;-41
2023/09/01 00:37:18;;;;;;;3.22;1.55;;;18.80;79.20;;;;;;4186477;28;20152;-41
2023/09/01 00:39:59;;;;;;;1.70;1.60;;;18.80;79.20;;;;;;4189307;28;20064;-43
2023/09/01 00:42:41;;;;;;;2.50;1.80;;;18.80;80.10;;;;;;4189325;28;20105;-42
2023/09/01 00:45:22;;;;;;;2.35;1.30;;;18.80;79.30;;;;;;4178569;28;20137;-42
2023/09/01 00:48:04;;;;;;;3.53;2.33;;;18.80;79.30;;;;;;4139382;28;20053;-40
2023/09/01 00:50:49;;;;;;;2.45;1.17;;;18.80;79.30;;;;;;4126257;28;20060;-43
2023/09/01 00:53:31;;;;;;;2.25;1.30;;;18.80;79.10;;;;;;4152424;28;20065;-43
2023/09/01 00:56:13;;;;;;;2.70;1.50;;;18.80;79.20;;;;;;4140130;28;20188;-46
2023/09/01 00:58:56;;;;;;;3.97;1.42;;;18.80;79.20;;;;;;4126865;28;20181;-43
2023/09/01 01:01:38;;;;;;;4.18;1.40;;;18.80;79.10;;;;;;4138444;28;20056;-41
2023/09/01 01:04:20;;;;;;;2.75;1.45;;;18.80;79.10;;;;;;4154163;28;20103;-42
2023/09/01 01:07:12;;;;;;;2.05;1.30;;;18.80;79.00;;;;;;4154071;28;20512;-43
2023/09/01 01:10:02;;;;;;;4.75;1.50;;;18.80;78.80;;;;;;4154172;28;20088;-42
2023/09/01 01:12:50;;;;;;;2.75;1.60;;;18.80;79.00;;;;;;4154894;28;20091;-41
2023/09/01 01:15:34;;;;;;;2.45;1.27;;;18.70;78.90;;;;;;4138250;28;20073;-45
2023/09/01 01:18:18;;;;;;;4.78;1.30;;;18.70;79.00;;;;;;4139126;28;20129;-43
2023/09/01 01:21:07;;;;;;;1.50;1.33;;;18.70;79.00;;;;;;4137975;28;20115;-42
2023/09/01 01:23:51;;;;;;;4.90;1.60;;;18.80;78.90;;;;;;4143787;28;20090;-45
2023/09/01 01:26:32;;;;;;;3.08;1.50;;;18.70;79.00;;;;;;4155315;28;20588;-45
2023/09/01 01:29:12;;;;;;;2.90;1.42;;;18.70;79.20;;;;;;4138330;28;20064;-41
2023/09/01 01:31:54;;;;;;;3.90;1.40;;;18.70;79.20;;;;;;4145166;28;20511;-46
2023/09/01 01:34:38;;;;;;;1.30;1.20;;;18.70;79.30;;;;;;4155910;28;20495;-43
2023/09/01 01:37:26;;;;;;;3.53;1.58;;;18.70;79.30;;;;;;4121069;28;20432;-42
2023/09/01 01:40:10;;;;;;;3.08;1.35;;;18.70;79.00;;;;;;4154345;28;20095;-41
2023/09/01 01:42:53;;;;;;;4.72;1.83;;;18.70;78.90;;;;;;4155367;28;20052;-40
2023/09/01 01:45:37;;;;;;;1.52;1.25;;;18.70;79.00;;;;;;4154008;28;20134;-41
2023/09/01 01:48:18;;;;;;;2.47;1.42;;;18.60;78.90;;;;;;4170929;28;20056;-41
2023/09/01 01:50:59;;;;;;;4.28;2.00;;;18.60;79.00;;;;;;4170533;28;20496;-41
2023/09/01 01:53:40;;;;;;;2.63;1.63;;;18.70;79.20;;;;;;4171194;28;20044;-42
2023/09/01 01:56:22;;;;;;;1.52;1.40;;;18.60;79.20;;;;;;4172141;28;20071;-41
2023/09/01 01:59:04;;;;;;;3.28;1.83;;;18.60;79.10;;;;;;4168222;28;20183;-43
2023/09/01 02:01:45;;;;;;;9.63;1.73;;;18.60;79.10;;;;;;4170825;28;20064;-43
2023/09/01 02:04:26;;;;;;;4.47;1.50;;;18.60;79.10;;;;;;4155698;28;20102;-41
2023/09/01 02:07:07;;;;;;;3.97;1.70;;;18.60;79.10;;;;;;4152524;28;20051;-43
2023/09/01 02:09:48;;;;;;;2.45;1.50;;;18.60;79.30;;;;;;4154869;28;20068;-41
2023/09/01 02:12:31;;;;;;;4.07;1.40;;;18.60;79.30;;;;;;4169425;28;20056;-41
2023/09/01 02:15:12;;;;;;;1.30;1.20;;;18.60;79.30;;;;;;4170837;28;20048;-42
2023/09/01 02:17:53;;;;;;;2.33;1.30;;;18.60;79.20;;;;;;4170565;28;20150;-47
2023/09/01 02:20:37;;;;;;;1.95;1.50;;;18.60;79.30;;;;;;4171893;28;20533;-46
2023/09/01 02:23:18;;;;;;;1.20;1.20;;;18.60;79.30;;;;;;4171303;28;20064;-46
2023/09/01 02:25:59;;;;;;;1.60;1.30;;;18.60;79.30;;;;;;4170605;28;20503;-44
2023/09/01 02:28:41;;;;;;;1.88;1.40;;;18.50;79.20;;;;;;4154564;28;20095;-47
2023/09/01 02:31:22;;;;;;;2.90;1.40;;;18.50;79.20;;;;;;4156907;28;20056;-45
2023/09/01 02:34:05;;;;;;;2.15;1.13;;;18.50;79.10;;;;;;4157109;28;20052;-48
2023/09/01 02:36:46;;;;;;;1.23;1.13;;;18.50;80.00;;;;;;4170367;28;20059;-44
2023/09/01 02:39:27;;;;;;;1.90;1.20;;;18.50;79.20;;;;;;4169968;28;20218;-44
2023/09/01 02:42:07;;;;;;;2.95;1.63;;;18.50;79.20;;;;;;4169718;28;20082;-45
2023/09/01 02:44:50;;;;;;;1.60;1.50;;;18.50;79.30;;;;;;4171279;28;20175;-45
2023/09/01 02:47:31;;;;;;;2.15;1.50;;;18.50;79.20;;;;;;4185211;28;20050;-46
2023/09/01 02:50:12;;;;;;;2.67;1.50;;;18.50;79.20;;;;;;4187212;28;20055;-44
2023/09/01 02:52:53;;;;;;;5.72;1.95;;;18.50;79.20;;;;;;4187650;28;20051;-46
2023/09/01 02:55:34;;;;;;;3.05;1.77;;;18.50;79.20;;;;;;4185978;28;20056;-49
2023/09/01 02:58:14;;;;;;;1.88;1.77;;;18.50;79.40;;;;;;4186272;28;20067;-45
2023/09/01 03:00:57;;;;;;;2.88;1.70;;;18.40;79.40;;;;;;4187681;28;20109;-46
2023/09/01 03:03:40;;;;;;;2.47;1.35;;;18.40;79.30;;;;;;4186396;28;20563;-47
2023/09/01 03:06:21;;;;;;;2.65;1.33;;;18.40;79.30;;;;;;4186276;28;20170;-45
2023/09/01 03:09:03;;;;;;;4.10;1.60;;;18.40;79.30;;;;;;4186560;28;20182;-46
2023/09/01 03:11:45;;;;;;;5.35;1.80;;;18.40;79.10;;;;;;4186772;28;20082;-45
2023/09/01 03:14:26;;;;;;;1.92;1.60;;;18.40;79.10;;;;;;4184324;28;20059;-45
2023/09/01 03:17:09;;;;;;;3.72;1.90;;;18.40;79.10;;;;;;4168913;28;20128;-43
2023/09/01 03:19:51;;;;;;;2.60;1.58;;;18.40;79.30;;;;;;4168635;28;20602;-44
2023/09/01 03:22:32;;;;;;;4.18;1.83;;;18.40;79.40;;;;;;4173325;28;20122;-43
2023/09/01 03:25:13;;;;;;;2.58;1.50;;;18.40;79.60;;;;;;4186969;28;20187;-44
2023/09/01 03:27:54;;;;;;;4.85;2.00;;;18.40;79.30;;;;;;4187752;28;20446;-44
2023/09/01 03:30:35;;;;;;;;;;;18.40;79.30;;;;;;4185851;28;20059;-45
2023/09/01 03:33:18;;;;;;;2.23;1.93;;;18.40;79.40;;;;;;4187002;28;19978;-44
2023/09/01 03:36:02;;;;;;;2.30;1.65;;;18.40;80.20;;;;;;4185707;28;20055;-44
2023/09/01 03:38:44;;;;;;;3.25;1.88;;;18.40;79.90;;;;;;4185846;28;20498;-44
2023/09/01 03:41:25;;;;;;;2.72;2.00;;;18.30;80.60;;;;;;4174661;28;20051;-44
2023/09/01 03:44:06;;;;;;;2.63;2.03;;;18.30;79.60;;;;;;4186990;28;20051;-44
2023/09/01 03:46:47;;;;;;;2.85;1.92;;;18.30;79.60;;;;;;4186838;28;20052;-46
2023/09/01 03:49:31;;;;;;;3.22;1.75;;;18.30;79.60;;;;;;4186217;28;20071;-47
2023/09/01 03:52:12;;;;;;;3.97;1.50;;;18.30;80.30;;;;;;4185710;28;20063;-44
2023/09/01 03:54:53;;;;;;;1.70;1.48;;;18.30;79.50;;;;;;4186983;28;20122;-45
2023/09/01 03:57:34;;;;;;;1.75;1.60;;;18.30;79.50;;;;;;4186491;28;20071;-46
2023/09/01 04:00:17;;;;;;;1.60;1.50;;;18.30;79.50;;;;;;4174102;28;20051;-48
2023/09/01 04:02:58;;;;;;;3.35;1.70;;;18.30;79.50;;;;;;4186364;28;20097;-48
2023/09/01 04:05:40;;;;;;;2.38;1.60;;;18.30;79.30;;;;;;4165802;28;20048;-49
2023/09/01 04:08:22;;;;;;;3.00;1.73;;;18.30;79.30;;;;;;4174859;28;20062;-47
2023/09/01 04:11:03;;;;;;;1.67;1.58;;;18.20;79.20;;;;;;4187299;28;20142;-46
2023/09/01 04:13:44;;;;;;;3.53;1.80;;;18.30;79.20;;;;;;4186771;28;20114;-53
2023/09/01 04:16:25;;;;;;;1.85;1.50;;;18.20;79.10;;;;;;4186438;28;20055;-49
2023/09/01 04:19:06;;;;;;;2.42;1.58;;;18.20;79.20;;;;;;4185723;28;20265;-49
2023/09/01 04:21:49;;;;;;;2.58;1.70;;;18.20;80.00;;;;;;4185551;28;20060;-41
2023/09/01 04:24:29;;;;;;;3.97;1.90;;;18.20;79.10;;;;;;4185543;28;20526;-41
2023/09/01 04:27:10;;;;;;;2.78;1.80;;;18.20;79.10;;;;;;4185874;28;20051;-42
2023/09/01 04:29:51;;;;;;;4.38;3.92;;;18.20;79.20;;;;;;4185633;28;20105;-43
2023/09/01 04:32:47;;;;;;;7.85;2.65;;;18.20;79.20;;;;;;4188691;28;20056;-42
2023/09/01 04:35:28;;;;;;;1.70;1.60;;;18.20;79.40;;;;;;4173488;28;20063;-44
2023/09/01 04:38:11;;;;;;;1.83;1.67;;;18.20;79.30;;;;;;4171683;28;20064;-41
2023/09/01 04:40:56;;;;;;;2.38;2.03;;;18.20;79.30;;;;;;4182607;28;20089;-41
2023/09/01 04:43:38;;;;;;;4.18;1.92;;;18.20;79.20;;;;;;4188466;28;20044;-41
2023/09/01 04:46:20;;;;;;;2.70;1.90;;;18.20;79.20;;;;;;4188083;28;20152;-41
2023/09/01 04:49:01;;;;;;;1.65;1.55;;;18.10;79.10;;;;;;4188070;28;20079;-42
2023/09/01 04:51:42;;;;;;;4.75;1.40;;;18.10;79.20;;;;;;4176539;28;20097;-41
2023/09/01 04:54:24;;;;;;;1.90;1.10;;;18.10;80.20;;;;;;4171698;28;20068;-41
2023/09/01 04:57:06;;;;;;;3.97;1.60;;;18.10;79.40;;;;;;4172102;28;20063;-41
2023/09/01 04:59:48;;;;;;;1.95;1.35;;;18.10;79.30;;;;;;4172842;28;20170;-41
2023/09/01 05:02:29;;;;;;;1.40;1.35;;;18.10;79.20;;;;;;4187743;28;20059;-42
2023/09/01 05:05:11;;;;;;;2.30;1.48;;;18.10;79.00;;;;;;4182701;28;20052;-43
2023/09/01 05:07:52;;;;;;;1.40;1.40;;;18.10;79.00;;;;;;4172971;28;20051;-49
2023/09/01 05:10:34;;;;;;;2.63;1.58;;;18.10;78.80;;;;;;4171951;28;20097;-43
2023/09/01 05:13:15;;;;;;;1.85;1.38;;;18.10;78.90;;;;;;4172354;28;20084;-42
2023/09/01 05:15:57;;;;;;;3.33;1.58;;;18.10;78.90;;;;;;4184963;28;20502;-41
2023/09/01 05:18:37;;;;;;;1.98;1.70;;;18.10;79.00;;;;;;4189185;28;20179;-41
2023/09/01 05:21:18;;;;;;;1.75;1.60;;;18.10;79.90;;;;;;4187851;28;20123;-40
2023/09/01 05:23:59;;;;;;;3.97;1.85;;;18.00;80.00;;;;;;4187258;28;20051;-42
2023/09/01 05:26:42;;;;;;;4.30;1.92;;;18.00;79.30;;;;;;4188241;28;20495;-42
2023/09/01 05:29:23;;;;;;;3.63;2.00;;;18.10;79.30;;;;;;4188962;28;20137;-45
2023/09/01 05:32:04;;;;;;;;;;;18.10;79.40;;;;;;4198086;28;20428;-42
2023/09/01 05:34:45;;;;;;;3.20;1.92;;;18.10;79.60;;;;;;4178600;28;20337;-43
2023/09/01 05:37:26;;;;;;;2.03;1.83;;;18.10;80.10;;;;;;4187692;28;20198;-42
2023/09/01 05:40:08;;;;;;;;;;;18.10;79.90;;;;;;4187842;28;20511;-43
2023/09/01 05:42:50;;;;;;;3.63;2.03;;;18.20;79.80;;;;;;4187518;28;19931;-43
2023/09/01 05:45:31;;;;;;;3.70;1.90;;;18.10;80.10;;;;;;4186630;28;20047;-48
2023/09/01 05:48:12;;;;;;;2.55;2.20;;;18.10;79.60;;;;;;4187688;28;20564;-44
2023/09/01 05:50:54;;;;;;;2.60;2.30;;;18.10;79.40;;;;;;4187919;28;20193;-45
2023/09/01 05:53:36;;;;;;;3.63;1.90;;;18.10;79.40;;;;;;4186464;28;20067;-49
2023/09/01 05:56:17;;;;;;;2.33;1.75;;;18.10;79.30;;;;;;4188135;28;20114;-49
2023/09/01 05:58:59;;;;;;;3.67;2.13;;;18.10;79.30;;;;;;4188415;28;20055;-44
2023/09/01 06:01:41;;;;;;;1.92;1.73;;;18.10;79.50;;;;;;4187500;28;20055;-48
2023/09/01 06:04:22;;;;;;;1.92;1.80;;;18.10;79.40;;;;;;4187813;28;20116;-46
2023/09/01 06:07:04;;;;;;;4.25;1.73;;;18.10;79.30;;;;;;4187466;28;20061;-46
2023/09/01 06:09:45;;;;;;;3.15;1.58;;;18.10;79.40;;;;;;4186753;28;20506;-45
2023/09/01 06:12:25;;;;;;;4.43;2.38;;;18.10;79.50;;;;;;4188120;28;20068;-50
2023/09/01 06:15:09;;;;;;;2.10;2.00;;;18.10;79.70;;;;;;4187855;28;20171;-44
2023/09/01 06:17:50;;;;;;;2.00;1.80;;;18.10;79.80;;;;;;4187295;28;20051;-46
2023/09/01 06:20:31;;;;;;;1.70;1.58;;;18.10;79.90;;;;;;4187876;28;20083;-47
2023/09/01 06:23:13;;;;;;;5.55;2.10;;;18.00;80.60;;;;;;4187050;28;20097;-48
2023/09/01 06:25:54;;;;;;;2.08;1.73;;;18.10;80.20;;;;;;4187746;28;20509;-45
2023/09/01 06:28:35;;;;;;;3.40;2.28;;;18.10;80.30;;;;;;4187901;28;20186;-46
2023/09/01 06:31:18;;;;;;;2.03;1.83;;;18.10;80.50;;;;;;4187029;28;20055;-47
2023/09/01 06:33:59;;;;;;;4.60;1.90;;;18.10;80.50;;;;;;4187896;28;20602;-45
2023/09/01 06:36:40;;;;;;;6.05;2.03;;;18.10;80.60;;;;;;4185282;28;20060;-45
2023/09/01 06:39:21;;;;;;;1.90;1.80;;;18.10;80.80;;;;;;4187300;28;20068;-47
2023/09/01 06:42:04;;;;;;;2.33;2.13;;;18.10;80.90;;;;;;4187758;28;20044;-43
2023/09/01 06:44:46;;;;;;;2.47;2.10;;;18.10;81.00;;;;;;4177124;28;20063;-48
2023/09/01 06:47:28;;;;;;;5.03;1.93;;;18.10;81.00;;;;;;4187260;28;20079;-44
2023/09/01 06:50:10;;;;;;;2.05;1.95;;;18.10;81.00;;;;;;4186398;28;20321;-47
2023/09/01 06:52:51;;;;;;;4.28;2.03;;;18.10;81.10;;;;;;4187052;28;20112;-44
2023/09/01 06:55:32;;;;;;;1.85;1.48;;;18.20;81.10;;;;;;4186856;28;20510;-44
2023/09/01 06:58:14;;;;;;;1.98;1.58;;;18.20;81.10;;;;;;4186903;28;20050;-45
2023/09/01 07:00:57;;;;;;;2.40;1.65;;;18.20;81.30;;;;;;4184196;28;20051;-49
2023/09/01 07:03:40;;;;;;;3.70;1.67;;;18.20;81.30;;;;;;4186814;28;20047;-45
2023/09/01 07:06:21;;;;;;;3.17;1.70;;;18.20;81.30;;;;;;4187027;28;20513;-45
2023/09/01 07:09:03;;;;;;;2.60;2.00;;;18.20;81.30;;;;;;4186177;28;20095;-45
2023/09/01 07:11:44;;;;;;;2.20;1.50;;;18.20;81.30;;;;;;4186852;28;20194;-47
2023/09/01 07:14:25;;;;;;;3.28;2.42;;;18.20;81.40;;;;;;4186715;28;20170;-44
2023/09/01 07:17:06;;;;;;;2.88;1.83;;;18.20;81.50;;;;;;4187000;28;20175;-46
2023/09/01 07:19:49;;;;;;;3.03;1.95;;;18.20;81.60;;;;;;4186991;28;20133;-50
2023/09/01 07:22:30;;;;;;;2.35;1.65;;;18.20;81.80;;;;;;4186738;28;20129;-46
2023/09/01 07:25:13;;;;;;;3.08;1.73;;;18.20;81.90;;;;;;4186397;28;20059;-45
2023/09/01 07:27:54;;;;;;;4.07;1.92;;;18.20;82.00;;;;;;4186006;28;20059;-45
2023/09/01 07:30:35;;;;;;;5.10;2.22;;;18.20;83.10;;;;;;4186926;28;20055;-45
2023/09/01 07:33:16;;;;;;;2.25;2.03;;;18.30;82.40;;;;;;4186132;28;20055;-44
2023/09/01 07:35:58;;;;;;;5.47;2.17;;;18.30;82.50;;;;;;4170575;28;20094;-46
2023/09/01 07:38:40;;;;;;;2.63;1.88;;;18.30;82.50;;;;;;4170482;28;20071;-44
2023/09/01 07:41:20;;;;;;;3.22;1.92;;;18.40;82.50;;;;;;4170428;28;20048;-44
2023/09/01 07:44:01;;;;;;;4.13;2.60;;;18.40;82.60;;;;;;4184804;28;20622;-45
2023/09/01 07:46:43;;;;;;;3.00;2.08;;;18.40;82.50;;;;;;4170953;28;20159;-41
2023/09/01 07:49:25;;;;;;;4.60;2.33;;;18.40;82.30;;;;;;4163059;28;20048;-42
2023/09/01 07:52:07;;;;;;;3.13;2.20;;;18.50;82.50;;;;;;4168477;28;20055;-43
2023/09/01 07:54:49;;;;;;;3.58;2.70;;;18.50;82.40;;;;;;4169863;28;20068;-43
2023/09/01 07:57:30;;;;;;;4.25;2.67;;;18.50;82.40;;;;;;4169294;28;20123;-44
2023/09/01 08:00:12;;;;;;;3.53;2.25;;;18.50;82.40;;;;;;4169852;28;20059;-44
2023/09/01 08:02:53;;;;;;;4.28;2.20;;;18.50;82.40;;;;;;4174828;28;20048;-46
2023/09/01 08:05:35;;;;;;;5.18;2.50;;;18.50;82.40;;;;;;4188548;28;20093;-43
2023/09/01 08:08:17;;;;;;;6.75;2.30;;;18.50;82.40;;;;;;4190066;28;20266;-43
2023/09/01 08:10:58;;;;;;;2.80;2.30;;;18.50;82.40;;;;;;4189936;28;20055;-46
2023/09/01 08:13:39;;;;;;;3.88;2.30;;;18.50;82.60;;;;;;4188973;28;20052;-43
2023/09/01 08:16:21;;;;;;;4.93;2.28;;;18.50;82.80;;;;;;4189333;28;20691;-43
2023/09/01 08:19:03;;;;;;;3.80;2.00;;;18.50;83.00;;;;;;4189984;28;20063;-44
2023/09/01 08:21:44;;;;;;;4.68;1.77;;;18.60;83.30;;;;;;4189506;28;20532;-43
2023/09/01 08:24:26;;;;;;;2.58;1.60;;;18.60;84.20;;;;;;4173577;28;20051;-47
2023/09/01 08:27:07;;;;;;;3.28;2.30;;;18.60;83.30;;;;;;4172612;28;20179;-45
2023/09/01 08:29:48;;;;;;;2.78;1.58;;;18.60;83.00;;;;;;4182735;28;20600;-46
2023/09/01 08:32:29;;;;;;;3.30;1.55;;;18.60;83.00;;;;;;4189307;28;20055;-46
2023/09/01 08:35:11;;;;;;;5.57;1.40;;;18.70;83.00;;;;;;4180692;28;20070;-45
2023/09/01 08:37:52;;;;;;;2.25;1.10;;;18.80;83.00;;;;;;4189857;28;20379;-45
2023/09/01 08:40:35;;;;;;;2.90;1.25;;;18.80;82.50;;;;;;4189042;28;20060;-45
2023/09/01 08:43:16;;;;;;;4.50;1.50;;;18.80;82.10;;;;;;4188564;28;20486;-44
2023/09/01 08:45:58;;;;;;;1.88;0.90;;;18.80;82.10;;;;;;4188625;28;20048;-43
2023/09/01 08:48:54;;;;;;;6.82;1.50;;;18.90;82.20;;;;;;4186767;28;20051;-45
2023/09/01 08:51:38;;;;;;;1.95;1.30;;;18.90;82.10;;;;;;4188433;28;20487;-43
2023/09/01 08:54:19;;;;;;;4.43;1.52;;;18.80;82.30;;;;;;4187802;28;20125;-43
2023/09/01 08:57:01;;;;;;;3.78;1.38;;;18.90;82.60;;;;;;4189458;28;20051;-44
2023/09/01 08:59:43;;;;;;;1.67;1.13;;;18.90;82.60;;;;;;4188898;28;20147;-43
2023/09/01 09:02:24;;;;;;;2.45;1.10;;;18.90;82.50;;;;;;4189750;28;20118;-41
2023/09/01 09:05:06;;;;;;;4.30;1.58;;;18.90;82.10;;;;;;4189433;28;20089;-43
2023/09/01 09:07:58;;;;;;;3.63;1.30;;;18.90;82.10;;;;;;4188075;28;20051;-42
2023/09/01 09:10:40;;;;;;;1.83;1.33;;;18.90;82.00;;;;;;4187378;28;20133;-41
2023/09/01 09:13:24;;;;;;;1.92;1.40;;;18.90;82.20;;;;;;4189670;28;20584;-42
2023/09/01 09:16:11;;;;;;;3.00;1.10;;;18.90;82.10;;;;;;4188301;28;20051;-41
2023/09/01 09:18:53;;;;;;;2.22;1.15;;;18.90;81.80;;;;;;4189071;28;20050;-41
2023/09/01 09:21:34;;;;;;;1.65;1.55;;;18.90;81.90;;;;;;4188334;28;20067;-45
2023/09/01 09:24:15;;;;;;;3.58;2.05;;;18.90;82.10;;;;;;4189013;28;20490;-46
2023/09/01 09:27:05;;;;;;;5.78;2.22;;;18.90;82.20;;;;;;4188495;28;20186;-43
2023/09/01 09:29:49;;;;;;;6.03;2.83;;;18.90;82.10;;;;;;4187276;28;20198;-45
2023/09/01 09:32:30;;;;;;;2.88;2.15;;;18.90;82.10;;;;;;4188066;28;20510;-42
2023/09/01 09:35:13;;;;;;;5.07;2.08;;;19.00;82.20;;;;;;4188824;28;20141;-43
2023/09/01 09:37:58;;;;;;;3.38;2.20;;;19.00;82.20;;;;;;4189020;28;20116;-43
2023/09/01 09:40:38;;;;;;;2.22;2.05;;;18.90;81.80;;;;;;4188885;28;20064;-41
2023/09/01 09:43:20;;;;;;;3.72;1.77;;;19.00;81.70;;;;;;4188924;28;20130;-47
2023/09/01 09:46:02;;;;;;;5.63;1.80;;;19.00;81.50;;;;;;4188494;28;20170;-43
2023/09/01 09:48:44;;;;;;;2.15;1.67;;;19.00;81.40;;;;;;4188705;28;20121;-43
2023/09/01 09:51:25;;;;;;;4.93;2.10;;;19.00;81.30;;;;;;4188545;28;20079;-45
2023/09/01 09:54:10;;;;;;;6.10;2.13;;;19.00;81.30;;;;;;4189230;28;20062;-43
2023/09/01 09:56:52;;;;;;;3.88;1.92;;;19.00;81.00;;;;;;4187467;28;20059;-44
2023/09/01 09:59:41;;;;;;;1.48;1.38;;;19.10;81.00;;;;;;4188423;28;20056;-45
2023/09/01 10:02:30;;;;;;;2.47;1.42;;;19.10;81.50;;;;;;4186902;28;20137;-44
2023/09/01 10:05:13;;;;;;;3.63;1.80;;;19.10;80.60;;;;;;4187772;28;20182;-43
2023/09/01 10:07:54;;;;;;;2.53;1.45;;;19.10;81.50;;;;;;4187656;28;20051;-44
2023/09/01 10:10:37;;;;;;;1.17;1.08;;;19.10;80.60;;;;;;4187783;28;20178;-44
2023/09/01 10:13:22;;;;;;;2.95;1.40;;;19.20;80.60;;;;;;4188240;28;20067;-45
2023/09/01 10:16:04;;;;;;;3.40;1.40;;;19.10;80.30;;;;;;4188152;28;20560;-45
2023/09/01 10:18:48;;;;;;;3.03;1.40;;;19.10;80.20;;;;;;4187522;28;20059;-43
2023/09/01 10:21:29;;;;;;;3.38;1.65;;;19.20;80.20;;;;;;4187686;28;20055;-43
2023/09/01 10:24:16;;;;;;;1.52;1.20;;;19.20;80.00;;;;;;4187959;28;20048;-41
2023/09/01 10:27:07;;;;;;;1.88;1.77;;;19.20;79.90;;;;;;4187619;28;20085;-44
2023/09/01 10:29:51;;;;;;;7.22;2.15;;;19.20;79.60;;;;;;4187212;28;20055;-42
2023/09/01 10:32:32;;;;;;;4.30;1.70;;;19.20;79.70;;;;;;4182003;28;20117;-42
2023/09/01 10:35:42;;;;;;;2.65;1.92;;;19.20;79.50;;;;;;4187347;28;20055;-43
2023/09/01 10:38:31;;;;;;;5.13;1.50;;;19.30;79.30;;;;;;4187371;28;20055;-43
2023/09/01 10:41:12;;;;;;;2.90;1.52;;;19.30;79.40;;;;;;4187768;28;20174;-45
2023/09/01 10:43:54;;;;;;;1.58;1.48;;;19.30;79.30;;;;;;4187937;28;20056;-43
2023/09/01 10:46:35;;;;;;;1.67;1.40;;;19.30;79.00;;;;;;4171670;28;20082;-45
2023/09/01 10:49:16;;;;;;;2.08;1.65;;;19.40;78.60;;;;;;4170756;28;20060;-43
2023/09/01 10:52:12;;;;;;;5.60;1.48;;;19.40;78.00;;;;;;4171120;28;20075;-43
2023/09/01 10:55:05;;;;;;;3.75;1.50;;;19.40;77.80;;;;;;4170310;28;20083;-42
2023/09/01 10:57:49;;;;;;;2.92;1.80;;;19.40;77.70;;;;;;4170830;28;20051;-41
2023/09/01 11:00:31;;;;;;;2.25;1.20;;;19.50;77.90;;;;;;4173666;28;20828;-43
2023/09/01 11:03:29;;;;;;;7.90;1.88;;;19.50;77.80;;;;;;4187143;28;20055;-41
2023/09/01 11:06:12;;;;;;;3.53;1.42;;;19.50;77.50;;;;;;4186257;28;20499;-40
2023/09/01 11:09:01;;;;;;;1.73;1.58;;;19.60;77.80;;;;;;4186574;28;20056;-44
2023/09/01 11:11:49;;;;;;;1.80;1.40;;;19.60;77.90;;;;;;4186745;28;20118;-40
2023/09/01 11:14:31;;;;;;;4.68;1.58;;;19.60;76.90;;;;;;4186994;28;20513;-42
2023/09/01 11:17:12;;;;;;;3.42;1.50;;;19.70;76.30;;;;;;4186864;28;20062;-40
2023/09/01 11:19:53;;;;;;;1.73;1.45;;;19.70;75.90;;;;;;4186057;28;20048;-41
2023/09/01 11:22:34;;;;;;;4.43;1.75;;;19.70;74.90;;;;;;4184845;28;20051;-40
2023/09/01 11:25:18;;;;;;;3.53;2.00;;;19.70;75.00;;;;;;4187460;28;20055;-43
2023/09/01 11:27:59;;;;;;;2.42;1.38;;;19.70;75.10;;;;;;4185749;28;20518;-49
2023/09/01 11:30:52;;;;;;;2.47;1.70;;;19.80;75.40;;;;;;4186890;28;20055;-44
2023/09/01 11:33:36;;;;;;;3.42;1.38;;;19.80;76.10;;;;;;4185235;28;20467;-43
2023/09/01 11:36:17;;;;;;;2.65;1.58;;;19.80;75.00;;;;;;4187046;28;20093;-42
2023/09/01 11:38:58;;;;;;;4.70;1.58;;;19.90;74.50;;;;;;4189820;28;20055;-40
2023/09/01 11:41:42;;;;;;;3.35;1.35;;;19.90;74.20;;;;;;4175824;28;20067;-41
2023/09/01 11:44:23;;;;;;;1.25;1.13;;;20.00;73.60;;;;;;4176071;28;20064;-41
2023/09/01 11:47:12;;;;;;;2.17;1.67;;;20.00;73.80;;;;;;4175655;28;20048;-40
2023/09/01 11:49:53;;;;;;;3.55;2.00;;;20.00;73.40;;;;;;4176309;28;20068;-40
2023/09/01 11:52:55;;;;;;;5.85;2.00;;;20.10;73.40;;;;;;4176019;28;20408;-42
2023/09/01 11:55:38;;;;;;;4.78;1.80;;;20.00;72.90;;;;;;4174670;28;20064;-42
2023/09/01 11:58:21;;;;;;;2.67;1.90;;;20.00;73.20;;;;;;4175530;28;20182;-44
2023/09/01 12:01:09;;;;;;;4.85;1.70;;;20.10;72.70;;;;;;4187833;28;20063;-43
2023/09/01 12:03:51;;;;;;;4.65;2.47;;;20.10;72.60;;;;;;4182567;28;20163;-45
2023/09/01 12:06:33;;;;;;;4.22;2.45;;;20.10;72.50;;;;;;4190321;28;20587;-43
2023/09/01 12:09:14;;;;;;;;;;;20.10;72.60;;;;;;4191447;28;20056;-43
2023/09/01 12:11:55;;;;;;;3.97;2.55;;;20.20;72.70;;;;;;4188063;28;19931;-43
2023/09/01 12:14:38;;;;;;;4.03;2.03;;;20.20;72.30;;;;;;4192305;28;20055;-43
2023/09/01 12:17:21;;;;;;;5.45;2.25;;;20.20;72.00;;;;;;4192101;28;20054;-43
2023/09/01 12:20:02;;;;;;;6.88;2.33;;;20.30;72.30;;;;;;4175168;28;20052;-41
2023/09/01 12:22:43;;;;;;;4.43;2.90;;;20.30;72.50;;;;;;4175357;28;20098;-41
2023/09/01 12:25:24;;;;;;;3.75;2.75;;;20.30;72.60;;;;;;4176110;28;20063;-42
2023/09/01 12:28:05;;;;;;;5.78;2.83;;;20.30;72.70;;;;;;4176101;28;20098;-45
2023/09/01 12:30:47;;;;;;;5.68;3.00;;;20.40;72.70;;;;;;4175831;28;20454;-45
2023/09/01 12:33:29;;;;;;;5.95;2.90;;;20.40;72.80;;;;;;4177473;28;20075;-42
2023/09/01 12:36:09;;;;;;;5.65;2.88;;;20.40;72.90;;;;;;4182477;28;20096;-44
2023/09/01 12:38:50;;;;;;;5.28;2.90;;;20.50;73.00;;;;;;4192186;28;20109;-41
2023/09/01 12:41:31;;;;;;;4.65;2.92;;;20.50;73.20;;;;;;4175654;28;20175;-41
2023/09/01 12:44:13;;;;;;;4.20;2.50;;;20.50;73.30;;;;;;4175581;28;20052;-40
2023/09/01 12:46:56;;;;;;;8.18;3.55;;;20.60;73.30;;;;;;4191384;28;20517;-41
2023/09/01 12:49:37;;;;;;;2.78;2.20;;;20.60;73.40;;;;;;4180353;28;20133;-40
2023/09/01 12:52:18;;;;;;;;;;;20.60;73.20;;;;;;4188785;28;20060;-40
2023/09/01 12:54:59;;;;;;;3.65;2.85;;;20.60;74.00;;;;;;4188885;28;20347;-43
2023/09/01 12:57:40;;;;;;;5.47;3.30;;;20.60;73.40;;;;;;4189475;28;20067;-43
2023/09/01 13:00:22;;;;;;;5.10;3.40;;;20.60;73.60;;;;;;4189464;28;20068;-44
2023/09/01 13:03:05;;;;;;;8.38;3.63;;;20.70;73.80;;;;;;4188929;28;20105;-40
2023/09/01 13:05:48;;;;;;;7.47;3.80;;;20.70;73.60;;;;;;4172308;28;20056;-41
2023/09/01 13:08:29;;;;;;;6.60;3.28;;;20.70;73.60;;;;;;4178756;28;20059;-40
2023/09/01 13:11:10;;;;;;;6.60;3.17;;;20.70;73.70;;;;;;4188960;28;20056;-40
2023/09/01 13:13:51;;;;;;;6.35;3.05;;;20.70;73.70;;;;;;4188725;28;20063;-40
2023/09/01 13:16:33;;;;;;;5.35;2.78;;;20.70;73.30;;;;;;4189220;28;20059;-40
2023/09/01 13:19:15;;;;;;;6.57;3.13;;;20.80;73.00;;;;;;4188127;28;20118;-39
2023/09/01 13:21:56;;;;;;;4.70;3.30;;;20.80;72.90;;;;;;4184362;28;20489;-39
2023/09/01 13:24:37;;;;;;;8.20;3.53;;;20.80;73.10;;;;;;4188466;28;20055;-40
2023/09/01 13:27:18;;;;;;;12.38;4.22;;;20.80;73.20;;;;;;4188511;28;20055;-40
2023/09/01 13:29:59;;;;;;;7.82;3.08;;;20.90;73.40;;;;;;4189266;28;20387;-40
2023/09/01 13:32:40;;;;;;;5.53;3.20;;;20.90;73.30;;;;;;4188310;28;20055;-39
2023/09/01 13:35:22;;;;;;;5.85;3.22;;;20.90;73.40;;;;;;4188351;28;20075;-41
2023/09/01 13:38:03;;;;;;;4.07;2.92;;;20.90;73.60;;;;;;4188089;28;20552;-43
2023/09/01 13:40:44;;;;;;;;;;;21.00;73.40;;;;;;4187897;28;20461;-42
2023/09/01 13:43:26;;;;;;;7.90;3.28;;;21.00;73.30;;;;;;4188588;28;20406;-43
2023/09/01 13:46:26;;;;;;;6.47;3.22;;;21.00;73.40;;;;;;4188773;28;20064;-43
2023/09/01 13:49:09;;;;;;;7.03;3.28;;;21.00;73.20;;;;;;4170977;28;20126;-46
2023/09/01 13:51:52;;;;;;;7.00;3.30;;;21.10;72.90;;;;;;4179982;28;20438;-43
2023/09/01 13:54:33;;;;;;;5.18;3.20;;;21.10;72.60;;;;;;4171525;28;20411;-42
2023/09/01 13:57:14;;;;;;;9.93;3.83;;;21.10;72.80;;;;;;4171297;28;20055;-42
2023/09/01 13:59:55;;;;;;;8.27;4.00;;;21.10;72.80;;;;;;4172190;28;20090;-42
2023/09/01 14:02:36;;;;;;;8.10;3.13;;;21.20;72.80;;;;;;4175540;28;20051;-42
2023/09/01 14:05:17;;;;;;;;;;;21.20;73.00;;;;;;4188795;28;20059;-42
2023/09/01 14:08:00;;;;;;;7.88;3.65;;;21.20;73.20;;;;;;4183659;28;19931;-43